Aérodrome :
LOGIN :

S'inscrire | Disclaimer

   EN    FR    IT 

 










Légende :    VFR   VFR Marginal   IFR   IFR Intensif   IFR Très Intensif
Visi : 
Plafond : 
>= 8 km
>= 3000ft
5 à 8 km
1000 à 3000 ft
1500m à 5 km
500 à 1000 ft
800 à 1500m
200 à 500 ft
< 800m
< 200 ft
Symboles :   Orages  Brouillard  Fortes neiges  Fortes précipitations  Vent > 20 kt
SIGMETs :   Divers  Orages  Givrage  Turbulence  Onde Orograph.  Cendres Volcan.






- Altitude de l'aérodrome : 236 ft
- Code IATA : MMX


ESMS - Malmö Sturup

DERNIER METAR :
  • 201720Z 11010KT 6000 BR OVC008 08/06 Q1018

METARs EXPIRÉS :
  • 201650Z 11010KT 6000 OVC008 08/07 Q1018
  • 201620Z 10011KT 6000 BR OVC008 08/07 Q1017
  • 201550Z 11009KT 6000 BR OVC009 08/07 Q1017
  • 201520Z 11010KT 7000 BR OVC011 08/07 Q1017
  • 201450Z 10013KT 7000 BR OVC010 09/07 Q1017

TAF TAF ESMS
Valide du 20 à 12h jusqu'au 21 à 12h UTC


201102Z 2012/2112 06006KT 9999 BKN015
BECMG 2012/2015 12010KT 3000 -RADZ BR BKN006
TEMPO 2015/2112 6000 RADZ BKN010



MET'MAP, la Météo Aéronautique d'un coup d'oeil ! - Copyright ORBIFLY Décembre 2007 - Disclaimer

ORBIFLY MET'MAP TEAM :

Programmation & Développement : Alexandra Zaïnal
Conception & Développement : Baudouin d'Aumeries
Co-Programmation & Développement : Marc-Olivier Méhu
Soutien technique & logistique : Manuel Goepfert

Contact : metmap@orbifly.com




SOURCES & CREDITS :

   NOAA